createdAt,value
2022-12-01T14:04:36.586Z,95.28
2022-12-01T14:07:37.970Z,93.61
2022-12-01T14:10:26.613Z,92.52
2022-12-01T14:13:01.636Z,92.60
2022-12-01T14:15:43.169Z,92.08
2022-12-01T14:18:32.823Z,91.15
2022-12-01T14:21:06.468Z,91.85
2022-12-01T14:23:37.585Z,91.36
2022-12-01T14:26:15.287Z,90.47
2022-12-01T14:29:27.405Z,91.31
2022-12-01T14:32:23.190Z,90.67
2022-12-01T14:34:56.504Z,91.51
2022-12-01T14:37:37.619Z,90.82
2022-12-01T14:40:14.091Z,90.91
2022-12-01T14:42:58.974Z,90.43
2022-12-01T14:45:35.305Z,90.85
2022-12-01T14:48:06.608Z,91.08
2022-12-01T14:50:45.184Z,90.97
2022-12-01T14:53:26.298Z,91.29
2022-12-01T14:55:58.073Z,91.46
2022-12-01T14:58:30.801Z,90.82
2022-12-01T15:01:07.904Z,90.40
2022-12-01T15:03:42.823Z,90.48
2022-12-01T15:06:17.432Z,91.19
2022-12-01T15:09:10.558Z,90.64
2022-12-01T15:11:40.054Z,90.74
2022-12-01T15:14:26.405Z,90.30
2022-12-01T15:16:55.253Z,90.57
2022-12-01T15:21:43.595Z,91.08
2022-12-01T15:24:23.895Z,90.17
2022-12-01T15:27:00.609Z,90.14
2022-12-01T15:29:45.967Z,90.33
2022-12-01T15:32:19.423Z,90.42
2022-12-01T15:34:50.805Z,90.57
2022-12-01T15:37:24.173Z,90.19
2022-12-01T15:40:11.894Z,90.22
2022-12-01T15:42:45.185Z,90.46
2022-12-01T15:45:21.830Z,90.16
2022-12-01T15:47:54.980Z,90.47
2022-12-01T15:50:32.781Z,90.51
2022-12-01T15:53:08.256Z,90.28
2022-12-01T15:55:40.015Z,90.16
2022-12-01T15:58:11.020Z,90.14
2022-12-01T16:00:39.781Z,90.07
2022-12-01T16:03:15.193Z,90.29
2022-12-01T16:05:46.358Z,90.65
2022-12-01T16:08:23.073Z,90.33
2022-12-01T16:11:14.513Z,90.18
2022-12-01T16:13:49.493Z,89.85
2022-12-01T16:16:43.812Z,90.03
2022-12-01T16:19:31.063Z,89.93
2022-12-01T16:22:06.373Z,89.90
2022-12-01T16:24:45.897Z,90.02
2022-12-01T16:27:24.273Z,89.77
2022-12-01T16:29:56.485Z,89.50
2022-12-01T16:32:30.984Z,89.68
2022-12-01T16:35:00.136Z,90.06
2022-12-01T16:37:29.380Z,90.02
2022-12-01T16:40:00.496Z,89.67
2022-12-01T16:42:29.375Z,89.98
2022-12-01T16:44:58.167Z,90.37
2022-12-01T16:47:27.610Z,90.51
2022-12-01T16:49:56.515Z,89.38
2022-12-01T16:55:39.803Z,89.95
2022-12-01T16:58:08.680Z,90.36
2022-12-01T17:00:37.516Z,90.21
2022-12-01T17:03:07.296Z,90.07
2022-12-01T17:05:36.409Z,90.29
2022-12-01T17:08:06.272Z,90.19
2022-12-01T17:10:41.056Z,90.80
2022-12-01T17:13:09.902Z,89.91
2022-12-01T17:15:42.891Z,90.85
2022-12-01T17:18:12.383Z,90.75
2022-12-01T17:20:41.136Z,90.18
2022-12-01T17:23:10.092Z,90.48
2022-12-01T17:25:43.991Z,91.00
2022-12-01T17:28:12.938Z,90.85
2022-12-01T17:30:42.375Z,90.77
2022-12-01T17:33:11.174Z,90.72
2022-12-01T17:35:40.276Z,90.18
2022-12-01T17:38:08.998Z,90.64
2022-12-01T17:40:37.688Z,90.86
2022-12-01T17:43:09.026Z,90.45
2022-12-01T17:45:41.327Z,90.31
2022-12-01T17:48:10.393Z,90.41
2022-12-01T17:50:39.954Z,90.90
2022-12-01T17:53:08.730Z,90.38
2022-12-01T17:55:40.868Z,90.42
2022-12-01T17:58:11.491Z,90.50
2022-12-01T18:00:40.615Z,90.77
2022-12-01T18:03:09.423Z,90.95
2022-12-01T18:05:38.190Z,90.80
2022-12-01T18:08:16.440Z,90.46
2022-12-01T18:10:45.482Z,91.14
2022-12-01T18:13:16.216Z,90.94
2022-12-01T18:15:45.046Z,91.02
2022-12-01T18:18:18.114Z,90.57
2022-12-01T18:20:51.757Z,90.41
2022-12-01T18:23:25.408Z,90.48
2022-12-01T18:25:57.514Z,91.01
2022-12-01T18:28:30.619Z,90.49
2022-12-01T18:31:05.991Z,90.98
2022-12-01T18:33:35.814Z,90.70
2022-12-01T18:36:05.956Z,90.72
2022-12-01T18:38:36.724Z,90.96
2022-12-01T18:41:06.094Z,90.52
2022-12-01T18:43:37.851Z,91.26
2022-12-01T18:46:07.989Z,91.03
2022-12-01T18:48:36.919Z,90.90
2022-12-01T18:51:09.279Z,91.02
2022-12-01T18:53:38.284Z,91.44
2022-12-01T18:56:12.182Z,90.94
2022-12-01T18:58:43.142Z,91.00
2022-12-01T19:01:26.690Z,91.02
2022-12-01T19:03:57.263Z,91.06
2022-12-01T19:06:27.144Z,91.48
2022-12-01T19:08:59.520Z,91.10
2022-12-01T19:11:28.514Z,90.56
2022-12-01T19:13:59.770Z,90.97
2022-12-01T19:16:32.625Z,91.00
2022-12-01T19:19:05.797Z,91.43
2022-12-01T19:21:36.509Z,91.48
2022-12-01T19:24:07.765Z,91.15
2022-12-01T19:26:42.621Z,91.23
2022-12-01T19:29:17.980Z,91.79
2022-12-01T19:31:48.425Z,91.29
2022-12-01T19:34:17.312Z,91.33
2022-12-01T19:36:53.035Z,91.14
2022-12-01T19:39:21.932Z,91.23
2022-12-01T19:41:56.646Z,90.64
2022-12-01T19:44:27.323Z,91.51
2022-12-01T19:46:55.897Z,91.08
2022-12-01T19:49:24.585Z,91.52
2022-12-01T19:51:56.348Z,90.76
2022-12-01T19:54:28.372Z,90.92
2022-12-01T19:56:57.024Z,90.87
2022-12-01T19:59:30.374Z,91.32
2022-12-01T20:01:59.050Z,91.47
2022-12-01T20:04:30.475Z,92.03
2022-12-01T20:07:06.130Z,92.30
2022-12-01T20:09:50.102Z,91.95
2022-12-01T20:12:19.135Z,92.47
2022-12-01T20:14:53.336Z,93.09
2022-12-01T20:17:29.965Z,92.92
2022-12-01T20:19:58.617Z,92.92
2022-12-01T20:22:31.429Z,93.29
2022-12-01T20:25:00.302Z,93.99
2022-12-01T20:27:35.290Z,94.67
2022-12-01T20:30:12.441Z,94.66
2022-12-01T20:32:46.949Z,94.45
2022-12-01T20:35:18.638Z,95.11
2022-12-01T20:37:49.892Z,95.51
2022-12-01T20:40:22.840Z,95.89
2022-12-01T20:42:54.791Z,95.86
2022-12-01T20:45:27.124Z,96.16
2022-12-01T20:47:55.787Z,96.07
2022-12-01T20:51:34.282Z,96.30
2022-12-01T20:57:56.972Z,96.91
2022-12-01T21:00:30.843Z,97.46
2022-12-01T21:02:59.555Z,96.54
2022-12-01T21:06:37.197Z,96.57
2022-12-01T21:09:06.860Z,96.98
2022-12-01T21:11:56.728Z,96.92
2022-12-01T21:14:31.434Z,97.47
2022-12-01T21:17:11.179Z,97.46
2022-12-01T21:19:46.830Z,97.43
2022-12-01T21:22:15.655Z,98.10
2022-12-01T21:24:52.031Z,97.66
2022-12-01T21:27:21.565Z,98.23
2022-12-01T21:29:51.758Z,97.97
2022-12-01T21:32:44.260Z,98.52
2022-12-01T21:35:29.014Z,98.60
2022-12-01T21:40:46.144Z,98.39
2022-12-01T21:44:04.146Z,98.37
2022-12-01T21:47:26.044Z,98.80
2022-12-01T21:50:20.348Z,98.72
2022-12-01T21:53:23.627Z,98.80
2022-12-01T21:56:34.844Z,98.09
2022-12-01T22:00:03.734Z,98.36
2022-12-01T22:06:29.752Z,98.57
2022-12-01T22:09:43.079Z,99.03
2022-12-01T22:13:05.575Z,99.06
2022-12-01T22:15:42.243Z,98.52
2022-12-01T22:18:21.419Z,98.37
2022-12-01T22:20:50.116Z,98.89
2022-12-01T22:23:20.173Z,99.26
2022-12-01T22:25:49.513Z,99.23
2022-12-01T22:28:25.072Z,98.75
2022-12-01T22:30:54.187Z,98.32
2022-12-01T22:33:25.779Z,99.06
2022-12-01T22:35:54.981Z,98.87
2022-12-01T22:38:35.499Z,99.15
2022-12-01T22:41:07.648Z,98.73
2022-12-01T22:43:56.738Z,99.45
2022-12-01T22:46:30.709Z,99.20
2022-12-01T22:49:03.051Z,99.83
2022-12-01T22:51:41.109Z,98.86
2022-12-01T22:54:33.652Z,99.15
2022-12-01T22:57:27.333Z,99.55
2022-12-01T22:59:58.362Z,99.97
2022-12-01T23:02:33.867Z,99.47
2022-12-01T23:05:14.286Z,99.32
2022-12-01T23:07:45.254Z,99.41
2022-12-01T23:10:18.626Z,99.70
2022-12-01T23:12:50.293Z,99.63
2022-12-01T23:15:31.735Z,99.68
2022-12-01T23:18:11.078Z,99.19
2022-12-01T23:20:39.808Z,99.22
2022-12-01T23:23:15.272Z,99.96
2022-12-01T23:25:45.535Z,99.64
2022-12-01T23:28:15.184Z,99.99
2022-12-01T23:30:49.140Z,99.77
2022-12-01T23:33:22.146Z,99.32
2022-12-01T23:35:56.537Z,99.72
2022-12-01T23:38:27.710Z,99.21
2022-12-01T23:41:01.946Z,99.66
2022-12-01T23:43:35.101Z,99.56
2022-12-01T23:46:10.279Z,99.54
2022-12-01T23:48:43.701Z,99.80
2022-12-01T23:51:19.800Z,99.25
2022-12-01T23:53:48.874Z,99.92
2022-12-01T23:56:21.613Z,99.90
2022-12-01T23:58:50.689Z,99.25
